Meteo Giornale » Osservazioni meteo Stati Uniti (USA) » Arlington
ore: 11:56 - Osservazioni Meteo Arlington
Lat. 48° 10' N Lon. 122° 10' W Alt. 42 metri s.l.m.
19 °C
Coperto
Temp. 24 Ore
11 °C
24 °C
Sud
16.7 Km/h
Dew point 13 °C
Umidità 68 %
Visibilità 10 Km
Il sole sorge alle ore 06:27
Il sole tramonta alle ore 19:50
| Data e Ora | Cielo e Fenomeni | T °C | DP °C | Um. % | Pres. hPa | Vis. km | Vento km/h | |
|---|---|---|---|---|---|---|---|---|
| Oggi h: 11:56 | Coperto | 19 | 13 | 68 | 1010 | 10 | S 16.7 | |
| Oggi h: 10:56 | Molto Nuvoloso | 18 | 13 | 72 | 1010 | 10 | S/SE 14.8 | |
| Oggi h: 10:49 | Molto Nuvoloso | 18 | 13 | 72 | 1010 | 10 | S 13 | |
| Oggi h: 10:11 | Poco Nuvoloso | 17 | 13 | 77 | 1010 | 10 | S/SE 14.8 | |
| Oggi h: 09:56 | Nuvoloso | 17 | 13 | 77 | 1010 | 10 | S/SO 14.8 | |
| Oggi h: 09:39 | Molto Nuvoloso | 17 | 13 | 77 | 1010 | 10 | S/SO 13 | |
| Oggi h: 08:56 | Sereno | 15 | 13 | 87 | 1010 | 10 | N 5.5 | |
| Oggi h: 07:56 | Sereno | 13 | 12 | 93 | 1010 | 10 | N 0 | |
| Oggi h: 06:56 | Sereno | 12 | 11 | 93 | 1010 | 10 | N 0 | |
| Oggi h: 05:56 | Sereno | 11 | 11 | 100 | 1009 | 10 | N 5.5 | |
| Oggi h: 05:03 | Foschia | 11 | 10 | 93 | 1009 | 8 | N 0 | |
| Oggi h: 04:56 | Foschia | 11 | 10 | 93 | 1009 | 2 | N 0 | |
| Oggi h: 04:47 | Foschia | 11 | 11 | 100 | 1009 | 2 | N 0 | |
| Oggi h: 04:38 | Foschia | 11 | 11 | 100 | 1009 | 5 | N 0 | |
| Oggi h: 04:27 | Foschia | 11 | 11 | 100 | 1009 | 5 | N 0 | |
| Oggi h: 03:56 | Sereno | 11 | 11 | 100 | 1009 | 13 | N 0 | |
| Oggi h: 03:43 | Foschia | 11 | 11 | 100 | 1009 | 6 | N 0 | |
| Oggi h: 03:33 | Foschia | 11 | 11 | 100 | 1009 | 2 | N 0 | |
| Oggi h: 02:56 | Sereno | 12 | 11 | 93 | 1009 | 10 | N 0 | |
| Oggi h: 01:56 | Sereno | 12 | 12 | 100 | 1009 | 10 | N 0 | |
| Oggi h: 00:56 | Sereno | 12 | 11 | 93 | 1009 | 10 | N 0 | |
| Ieri h: 23:56 | Sereno | 13 | 11 | 87 | 1009 | 10 | N 0 | |
| Ieri h: 22:56 | Sereno | 14 | 12 | 87 | 1009 | 10 | N 5.5 | |
| Ieri h: 21:56 | Sereno | 17 | 11 | 67 | 1009 | 10 | N 0 | |
| Ieri h: 20:56 | Sereno | 18 | 12 | 67 | 1009 | 10 | N 0 | |
| Ieri h: 19:56 | Sereno | 18 | 12 | 67 | 1008 | 10 | O/NO 9.3 | |
| Ieri h: 18:56 | Sereno | 20 | 12 | 59 | 1008 | 10 | NO 13 | |
| Ieri h: 17:56 | Sereno | 23 | 12 | 49 | 1008 | 10 | O/NO 18.5 | |
| Ieri h: 16:56 | Sereno | 23 | 12 | 49 | 1009 | 10 | O/NO 22.2 | |
| Ieri h: 15:56 | Sereno | 24 | 13 | 50 | 1009 | 10 | O/NO 22.2 | |
| Ieri h: 14:56 | Sereno | 24 | 13 | 50 | 1010 | 10 | O/NO 18.5 | |
| Ieri h: 13:56 | Sereno | 23 | 12 | 49 | 1011 | 10 | O/NO 16.7 | |
| Ieri h: 12:56 | Sereno | 22 | 12 | 53 | 1011 | 10 | O/NO 14.8 | |



